Time;durP1;ratioP1;P1;durP2;ratioP2;P2;SDS_P1;SDS_P2;PMS_P1;PMS_P2;Temp;Humidity;BMP_temperature;BMP_pressure;BME280_temperature;BME280_humidity;BME280_pressure;Samples;Min_cycle;Max_cycle;Signal;HPM_P1;HPM_P2
2022/06/26 00:01:22;;;;;;;31.23;18.00;;;17.70;99.90;;;;;;5050911;28;20424;-79
2022/06/26 00:03:48;;;;;;;29.77;18.35;;;17.70;99.90;;;;;;5051119;28;20021;-80
2022/06/26 00:06:13;;;;;;;29.02;17.90;;;17.60;99.90;;;;;;5051149;28;20475;-79
2022/06/26 00:08:39;;;;;;;30.60;18.40;;;17.60;99.90;;;;;;5051144;28;20021;-79
2022/06/26 00:11:05;;;;;;;27.70;18.08;;;17.60;99.90;;;;;;5050719;28;20052;-79
2022/06/26 00:13:30;;;;;;;28.77;19.25;;;17.60;99.90;;;;;;5037514;28;20017;-79
2022/06/26 00:15:57;;;;;;;33.67;19.80;;;17.60;99.90;;;;;;5051198;28;20040;-79
2022/06/26 00:18:22;;;;;;;33.78;19.42;;;17.50;99.90;;;;;;5050888;28;20029;-79
2022/06/26 00:20:48;;;;;;;29.73;19.98;;;17.50;99.90;;;;;;5050676;28;20053;-79
2022/06/26 00:23:14;;;;;;;27.75;19.23;;;17.50;99.90;;;;;;5050623;28;20040;-79
2022/06/26 00:25:39;;;;;;;33.10;20.30;;;17.40;99.90;;;;;;5046246;28;20026;-79
2022/06/26 00:28:05;;;;;;;36.90;19.20;;;17.40;99.90;;;;;;5041638;28;20431;-79
2022/06/26 00:30:30;;;;;;;30.58;18.65;;;17.40;99.90;;;;;;5050752;28;20504;-79
2022/06/26 00:32:56;;;;;;;29.63;17.65;;;17.40;99.90;;;;;;5050726;28;20079;-79
2022/06/26 00:35:22;;;;;;;30.23;18.17;;;17.40;99.90;;;;;;5050886;28;20441;-79
2022/06/26 00:37:48;;;;;;;25.65;17.75;;;17.40;99.90;;;;;;5044141;28;20032;-79
2022/06/26 00:40:14;;;;;;;27.63;18.02;;;17.30;99.90;;;;;;5043638;28;20040;-79
2022/06/26 00:42:40;;;;;;;31.02;18.83;;;17.30;99.90;;;;;;5050427;28;20029;-79
2022/06/26 00:45:06;;;;;;;28.70;19.55;;;17.30;99.90;;;;;;5044473;28;20487;-79
2022/06/26 00:47:32;;;;;;;30.73;20.15;;;17.20;99.90;;;;;;5040561;28;20033;-79
2022/06/26 00:49:57;;;;;;;32.72;21.30;;;17.20;99.90;;;;;;5054951;28;20037;-79
2022/06/26 00:52:24;;;;;;;35.08;21.65;;;17.20;99.90;;;;;;5054455;28;20413;-79
2022/06/26 00:54:50;;;;;;;34.30;21.88;;;17.20;99.90;;;;;;5054454;28;20078;-79
2022/06/26 00:57:17;;;;;;;36.42;22.80;;;17.10;99.90;;;;;;5041789;28;20559;-79
2022/06/26 00:59:43;;;;;;;38.08;23.88;;;17.10;99.90;;;;;;5039110;28;20025;-79
2022/06/26 01:02:09;;;;;;;39.45;24.00;;;17.10;99.90;;;;;;5043679;28;20025;-79
2022/06/26 01:04:34;;;;;;;38.83;23.77;;;17.00;99.90;;;;;;5051403;28;20017;-79
2022/06/26 01:07:01;;;;;;;41.63;24.15;;;17.00;99.90;;;;;;5054408;28;20029;-79
2022/06/26 01:09:26;;;;;;;40.78;25.27;;;17.00;99.90;;;;;;5040286;28;20048;-79
2022/06/26 01:11:53;;;;;;;39.20;24.38;;;17.00;99.90;;;;;;5054169;28;20552;-79
2022/06/26 01:14:19;;;;;;;38.45;24.45;;;16.90;99.90;;;;;;5054139;28;20376;-79
2022/06/26 01:16:45;;;;;;;38.03;24.05;;;17.00;99.90;;;;;;5054522;28;20021;-79
2022/06/26 01:19:16;;;;;;;43.53;25.30;;;16.90;99.90;;;;;;5042566;28;20602;-79
2022/06/26 01:21:42;;;;;;;39.63;23.30;;;16.90;99.90;;;;;;5052089;28;20024;-79
2022/06/26 01:24:08;;;;;;;41.42;24.77;;;17.00;99.90;;;;;;5054011;28;20037;-79
2022/06/26 01:26:36;;;;;;;39.20;23.60;;;16.90;99.90;;;;;;5054069;28;20075;-79
2022/06/26 01:29:02;;;;;;;35.72;23.23;;;16.90;99.90;;;;;;5035529;28;20062;-79
2022/06/26 01:31:28;;;;;;;39.13;23.98;;;16.90;99.90;;;;;;5033972;28;20022;-79
2022/06/26 01:33:54;;;;;;;40.10;23.38;;;16.90;99.90;;;;;;5050141;28;20028;-80
2022/06/26 01:36:19;;;;;;;36.03;22.67;;;16.80;99.90;;;;;;5053950;28;20063;-79
2022/06/26 01:38:46;;;;;;;40.47;22.85;;;16.80;99.90;;;;;;5053740;28;20025;-79
2022/06/26 01:41:11;;;;;;;34.58;22.63;;;16.90;99.90;;;;;;5053869;28;20033;-79
2022/06/26 01:43:39;;;;;;;38.30;21.95;;;16.90;99.90;;;;;;5039642;28;20023;-80
2022/06/26 01:46:05;;;;;;;34.00;20.27;;;16.90;99.90;;;;;;5039463;28;20045;-80
2022/06/26 01:48:33;;;;;;;35.85;21.15;;;16.90;99.90;;;;;;5032082;28;20080;-80
2022/06/26 01:51:00;;;;;;;34.83;19.33;;;16.80;99.90;;;;;;5035527;28;20025;-80
2022/06/26 01:53:27;;;;;;;38.88;18.00;;;16.80;99.90;;;;;;5044923;28;20021;-79
2022/06/26 01:55:53;;;;;;;31.23;17.40;;;16.80;99.90;;;;;;5047458;28;20032;-80
2022/06/26 01:58:18;;;;;;;33.45;18.17;;;16.70;99.90;;;;;;5034049;28;20026;-79
2022/06/26 02:00:46;;;;;;;29.30;17.48;;;16.70;99.90;;;;;;5046135;28;20056;-80
2022/06/26 02:03:13;;;;;;;32.65;17.23;;;16.70;99.90;;;;;;5039168;28;20056;-80
2022/06/26 02:05:39;;;;;;;33.58;17.65;;;16.60;99.90;;;;;;5042820;28;20044;-79
2022/06/26 02:08:05;;;;;;;33.97;18.08;;;16.60;99.90;;;;;;5050172;28;20036;-80
2022/06/26 02:16:02;;;;;;;30.67;16.63;;;16.60;99.90;;;;;;5053499;28;20036;-79
2022/06/26 02:18:28;;;;;;;28.20;17.05;;;16.50;99.90;;;;;;5052775;28;20033;-79
2022/06/26 02:20:55;;;;;;;31.52;16.63;;;16.50;99.90;;;;;;5043104;28;20041;-79
2022/06/26 02:23:21;;;;;;;27.70;16.08;;;16.50;99.90;;;;;;5045743;28;20100;-80
2022/06/26 02:25:47;;;;;;;30.55;15.50;;;16.50;99.90;;;;;;5040863;28;20427;-79
2022/06/26 02:28:13;;;;;;;27.50;14.63;;;16.40;99.90;;;;;;5052868;28;20100;-79
2022/06/26 02:30:39;;;;;;;24.08;15.27;;;16.40;99.90;;;;;;5039184;28;20025;-79
2022/06/26 02:33:05;;;;;;;27.02;14.25;;;16.40;99.90;;;;;;5053058;28;20028;-80
2022/06/26 02:35:31;;;;;;;23.92;14.15;;;16.30;99.90;;;;;;5048582;28;20113;-80
2022/06/26 02:37:57;;;;;;;27.33;14.80;;;16.30;99.90;;;;;;5042898;28;20159;-79
2022/06/26 02:40:27;;;;;;;25.92;13.88;;;16.30;99.90;;;;;;5038699;28;20409;-79
2022/06/26 02:42:53;;;;;;;20.45;12.82;;;16.30;99.90;;;;;;5052726;28;20028;-79
2022/06/26 02:45:19;;;;;;;20.40;12.90;;;16.20;99.90;;;;;;5051883;28;20025;-80
2022/06/26 02:47:45;;;;;;;24.67;13.65;;;16.20;99.90;;;;;;5039467;28;20040;-80
2022/06/26 02:50:11;;;;;;;22.85;12.95;;;16.20;99.90;;;;;;5052658;28;20467;-80
2022/06/26 02:52:37;;;;;;;23.90;12.82;;;16.20;99.90;;;;;;5034580;28;20100;-79
2022/06/26 02:55:04;;;;;;;21.52;12.93;;;16.10;99.90;;;;;;5042382;28;20059;-80
2022/06/26 02:57:30;;;;;;;22.38;12.68;;;16.10;99.90;;;;;;5038074;28;20033;-80
2022/06/26 02:59:55;;;;;;;24.13;11.88;;;16.10;99.90;;;;;;5052398;28;20035;-79
2022/06/26 03:02:21;;;;;;;21.70;12.75;;;16.10;99.90;;;;;;5052084;28;20075;-80
2022/06/26 03:04:47;;;;;;;26.63;12.25;;;16.10;99.90;;;;;;5051251;28;20032;-79
2022/06/26 03:07:13;;;;;;;24.33;12.55;;;16.10;99.90;;;;;;5052248;28;20017;-78
2022/06/26 03:09:38;;;;;;;21.95;12.65;;;16.10;99.90;;;;;;5032634;28;20025;-79
2022/06/26 03:12:04;;;;;;;21.02;12.13;;;16.10;99.90;;;;;;5032110;28;20409;-79
2022/06/26 03:14:30;;;;;;;24.23;11.98;;;16.10;99.90;;;;;;5046051;28;20448;-78
2022/06/26 03:16:56;;;;;;;23.52;12.23;;;16.10;99.90;;;;;;5040230;28;20071;-78
2022/06/26 03:19:22;;;;;;;23.50;11.55;;;16.10;99.90;;;;;;5051936;28;20076;-78
2022/06/26 03:21:47;;;;;;;24.55;12.43;;;16.10;99.90;;;;;;5051820;28;20021;-78
2022/06/26 03:24:13;;;;;;;23.42;12.43;;;16.10;99.90;;;;;;5051985;28;20465;-78
2022/06/26 03:26:39;;;;;;;23.02;12.95;;;16.10;99.90;;;;;;5047766;28;20110;-79
2022/06/26 03:29:06;;;;;;;23.60;12.65;;;16.00;99.90;;;;;;5041814;28;20036;-79
2022/06/26 03:31:32;;;;;;;26.52;13.30;;;16.00;99.90;;;;;;5049334;28;20068;-78
2022/06/26 03:33:58;;;;;;;23.77;13.10;;;16.00;99.90;;;;;;5031633;28;20033;-78
2022/06/26 03:36:25;;;;;;;27.35;14.20;;;16.00;99.90;;;;;;5045554;28;20052;-79
2022/06/26 03:38:51;;;;;;;28.70;14.00;;;16.00;99.90;;;;;;5037951;28;20461;-78
2022/06/26 03:41:17;;;;;;;29.95;13.82;;;16.00;99.90;;;;;;5051264;28;20036;-79
2022/06/26 03:43:42;;;;;;;28.02;13.77;;;15.90;99.90;;;;;;5051586;28;20025;-79
2022/06/26 03:46:08;;;;;;;26.15;13.25;;;15.90;99.90;;;;;;5051413;28;20029;-79
2022/06/26 03:48:34;;;;;;;30.83;14.05;;;15.90;99.90;;;;;;5049065;28;20067;-78
2022/06/26 03:50:59;;;;;;;26.83;14.27;;;15.90;99.90;;;;;;5039734;28;20352;-78
2022/06/26 03:53:25;;;;;;;25.70;13.57;;;15.90;99.90;;;;;;5040942;28;20087;-79
2022/06/26 03:55:52;;;;;;;25.52;13.52;;;15.90;99.90;;;;;;5047595;28;20067;-79
2022/06/26 03:58:18;;;;;;;28.50;13.52;;;15.90;99.90;;;;;;5051515;28;20060;-78
2022/06/26 04:00:44;;;;;;;25.38;13.05;;;15.90;99.90;;;;;;5051007;28;20041;-78
2022/06/26 04:03:09;;;;;;;27.35;13.25;;;15.90;99.90;;;;;;5051699;28;20013;-79
2022/06/26 04:05:37;;;;;;;28.45;13.80;;;16.00;99.90;;;;;;5051210;28;20389;-79
2022/06/26 04:08:04;;;;;;;29.73;14.20;;;16.00;99.90;;;;;;5046699;28;20014;-79
2022/06/26 04:10:30;;;;;;;28.58;13.70;;;16.00;99.90;;;;;;5031479;28;20037;-80
2022/06/26 04:13:02;;;;;;;26.23;13.50;;;16.00;99.90;;;;;;5045403;28;20025;-80
2022/06/26 04:15:30;;;;;;;31.33;14.63;;;16.00;99.90;;;;;;5041156;28;20171;-80
2022/06/26 04:17:56;;;;;;;28.40;14.38;;;16.10;99.90;;;;;;5051118;28;20108;-80
2022/06/26 04:20:22;;;;;;;34.58;14.50;;;16.10;99.90;;;;;;5051244;28;20072;-79
2022/06/26 04:22:59;;;;;;;27.55;13.98;;;16.10;99.90;;;;;;5050840;28;20033;-80
2022/06/26 04:25:25;;;;;;;30.40;13.07;;;16.10;99.90;;;;;;5043383;28;20485;-80
2022/06/26 04:27:51;;;;;;;27.70;13.65;;;16.10;99.90;;;;;;5031262;28;20481;-80
2022/06/26 04:30:16;;;;;;;30.27;13.60;;;16.10;99.90;;;;;;5050925;28;20115;-80
2022/06/26 04:32:42;;;;;;;30.02;13.02;;;16.10;99.90;;;;;;5050670;28;20116;-80
2022/06/26 04:35:09;;;;;;;27.88;12.32;;;16.10;99.90;;;;;;5037045;28;20013;-80
2022/06/26 04:37:36;;;;;;;26.27;13.05;;;16.10;99.90;;;;;;5040934;28;20547;-80
2022/06/26 04:40:03;;;;;;;27.27;13.10;;;16.10;99.90;;;;;;5047359;28;20036;-80
2022/06/26 04:42:28;;;;;;;27.45;12.57;;;16.10;99.90;;;;;;5050789;28;20028;-80
2022/06/26 04:44:54;;;;;;;24.83;12.55;;;16.10;99.90;;;;;;5051261;28;20025;-79
2022/06/26 04:47:19;;;;;;;28.17;12.75;;;16.20;99.90;;;;;;5051155;28;20057;-79
2022/06/26 04:49:45;;;;;;;25.38;12.63;;;16.20;99.90;;;;;;5050634;28;20051;-80
2022/06/26 04:52:11;;;;;;;25.45;12.15;;;16.20;99.90;;;;;;5050582;28;20021;-79
2022/06/26 04:54:36;;;;;;;25.17;13.02;;;16.20;99.90;;;;;;5050754;28;20385;-79
2022/06/26 04:57:02;;;;;;;22.27;11.82;;;16.20;99.90;;;;;;5051217;28;20021;-79
2022/06/26 04:59:27;;;;;;;22.85;11.55;;;16.20;99.90;;;;;;5032401;28;20025;-79
2022/06/26 05:01:53;;;;;;;22.38;11.00;;;16.20;99.90;;;;;;5040746;28;20023;-80
2022/06/26 05:04:18;;;;;;;20.17;10.23;;;16.30;99.90;;;;;;5050704;28;20037;-80
2022/06/26 05:06:44;;;;;;;18.52;8.25;;;16.30;99.90;;;;;;5050453;28;20473;-80
2022/06/26 05:09:09;;;;;;;13.23;7.28;;;16.30;99.90;;;;;;5050436;28;20432;-79
2022/06/26 05:11:35;;;;;;;13.25;6.63;;;16.30;99.90;;;;;;5044649;28;20026;-80
2022/06/26 05:14:01;;;;;;;11.23;6.95;;;16.30;99.90;;;;;;5042603;28;20021;-80
2022/06/26 05:16:26;;;;;;;9.82;6.13;;;16.30;99.90;;;;;;5046508;28;20433;-80
2022/06/26 05:18:52;;;;;;;11.60;6.28;;;16.40;99.90;;;;;;5040114;28;20053;-80
2022/06/26 05:21:17;;;;;;;14.43;6.18;;;16.50;99.90;;;;;;5050418;28;20079;-80
2022/06/26 05:23:43;;;;;;;14.07;6.22;;;16.50;99.90;;;;;;5042525;28;20028;-80
2022/06/26 05:26:08;;;;;;;9.98;5.63;;;16.50;99.90;;;;;;5030657;28;20013;-80
2022/06/26 05:28:34;;;;;;;11.43;5.88;;;16.50;99.90;;;;;;5052843;28;20405;-80
2022/06/26 05:31:00;;;;;;;15.27;5.97;;;16.60;99.90;;;;;;5052883;28;20437;-80
2022/06/26 05:33:25;;;;;;;14.15;5.60;;;16.60;99.90;;;;;;5053843;28;20230;-80
2022/06/26 05:35:51;;;;;;;12.18;5.32;;;16.60;99.90;;;;;;5044491;28;20033;-80
2022/06/26 05:38:17;;;;;;;9.90;5.82;;;16.60;99.90;;;;;;5049388;28;20103;-80
2022/06/26 05:40:42;;;;;;;11.30;5.60;;;16.60;99.90;;;;;;5053619;28;20460;-80
2022/06/26 05:43:08;;;;;;;14.20;5.80;;;16.60;99.90;;;;;;5054006;28;20067;-80
2022/06/26 05:45:33;;;;;;;12.50;5.60;;;16.60;99.90;;;;;;5039516;28;20021;-80
2022/06/26 05:47:59;;;;;;;11.18;6.18;;;16.60;99.90;;;;;;5053572;28;20048;-79
2022/06/26 05:50:25;;;;;;;9.38;5.65;;;16.70;99.90;;;;;;5054438;28;20436;-80
2022/06/26 05:52:51;;;;;;;9.60;5.72;;;16.70;99.90;;;;;;5054001;28;20055;-80
2022/06/26 05:55:16;;;;;;;11.73;6.72;;;16.70;99.90;;;;;;5054335;28;20053;-80
2022/06/26 05:57:42;;;;;;;13.43;5.80;;;16.80;99.90;;;;;;5040682;28;20085;-80
2022/06/26 06:00:09;;;;;;;12.20;6.55;;;16.80;99.90;;;;;;5054019;28;20036;-80
2022/06/26 06:02:34;;;;;;;9.82;5.50;;;16.80;99.90;;;;;;5052282;28;20033;-79
2022/06/26 06:05:00;;;;;;;10.23;6.03;;;16.90;99.90;;;;;;5041946;28;20159;-80
2022/06/26 06:07:26;;;;;;;9.80;5.43;;;16.90;99.90;;;;;;5054175;28;20025;-80
2022/06/26 06:09:52;;;;;;;9.75;5.32;;;16.90;99.90;;;;;;5054032;28;20440;-80
2022/06/26 06:12:17;;;;;;;11.63;5.32;;;17.00;99.90;;;;;;5054013;28;20083;-80
2022/06/26 06:14:43;;;;;;;11.15;5.68;;;17.00;99.90;;;;;;5039704;28;20087;-80
2022/06/26 06:19:53;;;;;;;10.63;5.13;;;17.10;99.90;;;;;;5053946;28;20099;-80
2022/06/26 06:22:18;;;;;;;9.07;5.47;;;17.10;99.90;;;;;;5053862;28;20029;-79
2022/06/26 06:24:44;;;;;;;8.90;5.20;;;17.10;99.90;;;;;;5052421;28;20025;-80
2022/06/26 06:27:09;;;;;;;8.40;5.35;;;17.10;99.90;;;;;;5053729;28;20099;-79
2022/06/26 06:29:35;;;;;;;7.80;5.40;;;17.20;99.90;;;;;;5053501;28;20027;-80
2022/06/26 06:32:00;;;;;;;10.23;5.40;;;17.20;99.90;;;;;;5033220;28;20041;-80
2022/06/26 06:34:26;;;;;;;12.65;5.60;;;17.30;99.90;;;;;;5045288;28;20049;-80
2022/06/26 06:36:52;;;;;;;8.25;5.10;;;17.30;99.90;;;;;;5052943;28;20479;-79
2022/06/26 06:39:18;;;;;;;8.32;4.70;;;17.30;99.90;;;;;;5049322;28;20032;-79
2022/06/26 06:41:43;;;;;;;12.38;5.18;;;17.30;99.90;;;;;;5034998;28;20021;-79
2022/06/26 06:44:09;;;;;;;8.98;5.07;;;17.30;99.90;;;;;;5040091;28;20009;-80
2022/06/26 06:46:35;;;;;;;11.43;5.68;;;17.40;99.90;;;;;;5037481;28;20028;-80
2022/06/26 06:49:00;;;;;;;9.57;5.28;;;17.40;99.90;;;;;;5036517;28;20162;-79
2022/06/26 06:51:26;;;;;;;10.20;5.95;;;17.40;99.90;;;;;;5039601;28;20046;-80
2022/06/26 06:53:51;;;;;;;14.30;5.82;;;17.50;99.90;;;;;;5040362;28;20447;-80
2022/06/26 06:56:17;;;;;;;7.93;4.95;;;17.60;99.90;;;;;;5036273;28;20033;-80
2022/06/26 06:58:42;;;;;;;8.32;4.63;;;17.80;99.90;;;;;;5041064;28;20025;-78
2022/06/26 07:01:08;;;;;;;7.53;4.55;;;17.80;99.90;;;;;;5037063;28;20040;-79
2022/06/26 07:03:34;;;;;;;7.30;4.82;;;17.90;99.90;;;;;;5038298;28;20056;-79
2022/06/26 07:05:59;;;;;;;9.27;4.63;;;17.90;99.90;;;;;;5041380;28;20358;-79
2022/06/26 07:08:25;;;;;;;11.40;4.55;;;17.90;99.90;;;;;;5035586;28;20553;-79
2022/06/26 07:10:50;;;;;;;7.05;4.85;;;18.00;99.90;;;;;;5039984;28;20020;-79
2022/06/26 07:13:16;;;;;;;9.20;4.53;;;18.00;99.90;;;;;;5038119;28;20025;-79
2022/06/26 07:15:41;;;;;;;8.48;4.38;;;18.10;99.90;;;;;;5037077;28;20375;-79
2022/06/26 07:18:07;;;;;;;8.63;4.78;;;18.10;99.90;;;;;;5043498;28;20024;-79
2022/06/26 07:20:33;;;;;;;11.70;4.80;;;18.20;99.90;;;;;;5039536;28;20057;-79
2022/06/26 07:22:59;;;;;;;8.77;4.70;;;18.20;99.90;;;;;;5039794;28;20025;-79
2022/06/26 07:25:24;;;;;;;9.32;4.43;;;18.20;99.90;;;;;;5037907;28;20067;-79
2022/06/26 07:27:50;;;;;;;9.50;4.55;;;18.30;99.90;;;;;;5046541;28;20060;-82
2022/06/26 07:30:16;;;;;;;10.02;4.85;;;18.40;99.90;;;;;;5035207;28;20477;-82
2022/06/26 07:32:42;;;;;;;7.15;3.97;;;18.40;99.90;;;;;;5042129;28;20440;-82
2022/06/26 07:35:08;;;;;;;13.15;4.22;;;18.60;99.90;;;;;;5032261;28;20025;-82
2022/06/26 07:37:33;;;;;;;8.75;4.30;;;18.70;99.90;;;;;;5036136;28;20032;-81
2022/06/26 07:39:59;;;;;;;10.35;4.97;;;18.80;99.90;;;;;;5040083;28;20124;-82
2022/06/26 07:42:25;;;;;;;7.13;4.53;;;18.80;99.90;;;;;;5040321;28;20109;-82
2022/06/26 07:44:50;;;;;;;9.68;5.00;;;18.90;99.90;;;;;;5045823;28;20320;-81
2022/06/26 07:47:16;;;;;;;5.47;4.25;;;19.10;99.90;;;;;;5032119;28;20381;-82
2022/06/26 07:49:42;;;;;;;8.68;4.32;;;19.20;99.90;;;;;;5031778;28;20037;-81
2022/06/26 07:52:08;;;;;;;8.25;4.32;;;19.30;99.90;;;;;;5045950;28;20044;-81
2022/06/26 07:54:33;;;;;;;8.65;4.60;;;19.40;99.90;;;;;;5047418;28;20087;-80
2022/06/26 07:56:59;;;;;;;7.07;3.97;;;19.60;99.90;;;;;;5043569;28;20028;-81
2022/06/26 07:59:25;;;;;;;6.40;3.70;;;19.80;99.90;;;;;;5051245;28;20473;-81
2022/06/26 08:01:50;;;;;;;8.07;4.25;;;20.00;99.90;;;;;;5051702;28;20079;-81
2022/06/26 08:04:16;;;;;;;10.40;4.72;;;20.10;99.90;;;;;;5051649;28;20033;-80
2022/06/26 08:06:42;;;;;;;8.88;4.50;;;20.20;99.90;;;;;;5040603;28;20048;-81
2022/06/26 08:09:08;;;;;;;8.75;3.47;;;20.40;99.90;;;;;;5036144;28;20469;-82
2022/06/26 08:11:34;;;;;;;7.18;3.55;;;20.50;99.90;;;;;;5037784;28;20108;-82
2022/06/26 08:13:59;;;;;;;9.00;3.80;;;20.60;99.90;;;;;;5031175;28;20452;-82
2022/06/26 08:16:25;;;;;;;8.85;4.05;;;20.70;99.90;;;;;;5036376;28;20100;-82
2022/06/26 08:18:51;;;;;;;7.32;4.10;;;20.80;99.90;;;;;;5036278;28;20020;-82
2022/06/26 08:24:02;;;;;;;7.25;3.42;;;21.10;99.90;;;;;;5035479;28;20029;-81
2022/06/26 08:26:27;;;;;;;5.50;2.10;;;21.30;99.90;;;;;;5030373;28;20465;-82
2022/06/26 08:28:53;;;;;;;4.00;2.20;;;21.30;99.90;;;;;;5031653;28;20028;-81
2022/06/26 08:31:19;;;;;;;6.32;2.70;;;21.30;99.90;;;;;;5039647;28;20025;-81
2022/06/26 08:33:44;;;;;;;7.15;3.03;;;21.20;99.90;;;;;;5036230;28;20025;-81
2022/06/26 08:36:10;;;;;;;6.43;2.80;;;21.20;99.90;;;;;;5049167;28;20162;-80
2022/06/26 08:38:36;;;;;;;5.25;2.60;;;21.20;99.90;;;;;;5033091;28;20029;-80
2022/06/26 08:41:02;;;;;;;9.68;2.65;;;21.20;99.90;;;;;;5033052;28;20120;-80
2022/06/26 08:43:28;;;;;;;4.68;2.80;;;21.30;99.90;;;;;;5042027;28;20013;-80
2022/06/26 08:45:54;;;;;;;6.95;2.83;;;21.40;99.90;;;;;;5033463;28;20029;-80
2022/06/26 08:48:26;;;;;;;7.68;3.17;;;21.50;99.90;;;;;;5033693;28;20014;-80
2022/06/26 08:50:51;;;;;;;4.50;2.72;;;21.60;99.90;;;;;;5044931;28;20427;-80
2022/06/26 08:53:19;;;;;;;6.85;2.30;;;21.70;99.90;;;;;;5051597;28;20101;-81
2022/06/26 08:55:45;;;;;;;4.97;1.98;;;21.70;99.90;;;;;;5036792;28;20036;-80
2022/06/26 08:58:11;;;;;;;5.75;2.00;;;21.70;99.90;;;;;;5051195;28;20088;-80
2022/06/26 09:00:37;;;;;;;5.30;1.70;;;21.70;99.90;;;;;;5051624;28;20120;-80
2022/06/26 09:03:03;;;;;;;4.90;1.95;;;21.70;99.90;;;;;;5054358;28;20013;-80
2022/06/26 09:05:28;;;;;;;4.05;1.63;;;21.70;99.90;;;;;;5056311;28;20029;-80
2022/06/26 09:07:56;;;;;;;5.05;1.80;;;21.70;99.90;;;;;;5056248;28;20028;-80
2022/06/26 09:10:22;;;;;;;5.57;1.80;;;21.70;99.90;;;;;;5055888;28;20035;-80
2022/06/26 09:12:57;;;;;;;5.10;1.95;;;21.70;99.90;;;;;;5053642;28;20108;-80
2022/06/26 09:15:25;;;;;;;3.05;1.70;;;21.60;99.90;;;;;;5044922;28;20048;-80
2022/06/26 09:18:03;;;;;;;5.25;1.73;;;21.60;99.90;;;;;;5041240;28;20101;-80
2022/06/26 09:20:30;;;;;;;6.68;1.90;;;21.70;99.90;;;;;;5055011;28;20103;-80
2022/06/26 09:22:59;;;;;;;7.25;2.35;;;21.50;99.90;;;;;;5039708;28;20026;-80
2022/06/26 09:25:39;;;;;;;6.40;2.25;;;21.50;99.90;;;;;;5035421;28;20484;-80
2022/06/26 09:28:09;;;;;;;4.55;1.95;;;21.60;99.90;;;;;;5050546;28;20100;-80
2022/06/26 09:31:04;;;;;;;4.95;1.83;;;21.60;99.90;;;;;;5055563;28;20028;-80
2022/06/26 09:33:32;;;;;;;5.90;1.98;;;21.70;99.90;;;;;;5036669;28;20033;-79
2022/06/26 09:35:59;;;;;;;4.10;1.95;;;21.70;99.90;;;;;;5044188;28;20110;-79
2022/06/26 09:38:30;;;;;;;4.28;2.00;;;21.70;99.90;;;;;;5041096;28;20021;-80
2022/06/26 09:41:01;;;;;;;3.97;1.95;;;21.60;99.90;;;;;;5054619;28;20021;-80
2022/06/26 09:43:27;;;;;;;5.18;1.80;;;21.70;99.90;;;;;;5054419;28;20040;-80
2022/06/26 09:45:56;;;;;;;6.70;2.15;;;21.60;99.90;;;;;;5046148;28;20079;-80
2022/06/26 09:48:25;;;;;;;4.47;1.90;;;21.50;99.90;;;;;;5048897;28;20472;-80
2022/06/26 09:50:52;;;;;;;3.60;1.90;;;21.50;99.90;;;;;;5054759;28;20032;-79
2022/06/26 09:53:18;;;;;;;5.80;1.98;;;21.50;99.90;;;;;;5054005;28;20028;-79
2022/06/26 09:55:46;;;;;;;3.10;1.60;;;21.50;99.90;;;;;;5040386;28;20028;-80
2022/06/26 09:58:12;;;;;;;6.90;1.98;;;21.60;99.90;;;;;;5054268;28;20028;-79
2022/06/26 10:00:39;;;;;;;4.88;1.83;;;21.80;99.90;;;;;;5041931;28;20065;-80
2022/06/26 10:08:39;;;;;;;3.03;1.70;;;22.20;99.90;;;;;;5039642;28;20072;-79
2022/06/26 10:11:05;;;;;;;3.28;2.08;;;22.20;99.90;;;;;;5041421;28;20104;-81
2022/06/26 10:13:34;;;;;;;3.90;1.83;;;22.20;99.70;;;;;;5041485;28;20083;-82
2022/06/26 10:16:18;;;;;;;5.43;1.92;;;22.30;99.60;;;;;;5035408;28;20040;-80
2022/06/26 10:18:52;;;;;;;3.75;1.80;;;22.40;98.50;;;;;;5038118;28;20021;-80
2022/06/26 10:21:18;;;;;;;7.47;1.98;;;22.40;98.40;;;;;;5039949;28;20108;-79
2022/06/26 10:23:43;;;;;;;4.90;1.85;;;22.40;98.30;;;;;;5043128;28;20116;-78
2022/06/26 10:26:17;;;;;;;6.50;1.88;;;22.40;98.20;;;;;;5033680;28;20032;-80
2022/06/26 10:29:08;;;;;;;7.57;2.10;;;22.40;98.20;;;;;;5036414;28;20017;-80
2022/06/26 10:31:48;;;;;;;8.35;1.83;;;22.50;97.20;;;;;;5040131;28;20359;-80
2022/06/26 10:34:19;;;;;;;4.07;1.95;;;22.40;97.50;;;;;;5042089;28;20508;-78
2022/06/26 10:37:04;;;;;;;5.18;2.13;;;22.40;98.00;;;;;;5036114;28;20020;-78
2022/06/26 10:39:38;;;;;;;5.90;1.97;;;22.30;97.90;;;;;;5034458;28;20045;-78
2022/06/26 10:45:14;;;;;;;6.53;2.35;;;22.40;98.40;;;;;;5035332;28;19987;-78
2022/06/26 10:47:57;;;;;;;5.15;2.13;;;22.40;98.70;;;;;;5037266;28;20018;-78
2022/06/26 10:50:38;;;;;;;4.70;1.88;;;22.40;97.90;;;;;;5037438;28;20064;-77
2022/06/26 10:53:23;;;;;;;5.38;2.20;;;22.40;98.10;;;;;;5032480;28;20048;-76
2022/06/26 10:55:52;;;;;;;6.88;2.33;;;22.30;97.90;;;;;;5035037;28;20429;-78
2022/06/26 10:58:48;;;;;;;5.03;2.30;;;22.20;97.80;;;;;;5033467;28;20017;-77
2022/06/26 11:01:16;;;;;;;7.10;2.50;;;22.20;97.80;;;;;;5034063;28;20037;-78
2022/06/26 11:03:43;;;;;;;5.35;2.20;;;22.20;98.00;;;;;;5032687;28;20025;-78
2022/06/26 11:06:10;;;;;;;5.45;2.17;;;22.20;98.30;;;;;;5035598;28;20044;-77
2022/06/26 11:08:47;;;;;;;3.97;2.05;;;22.30;98.30;;;;;;5040539;28;20390;-76
2022/06/26 11:11:17;;;;;;;4.40;2.20;;;22.40;97.60;;;;;;5035029;28;20108;-79
2022/06/26 11:13:51;;;;;;;7.18;2.25;;;22.50;97.00;;;;;;5032662;28;20033;-76
2022/06/26 11:16:17;;;;;;;6.47;2.53;;;22.50;96.90;;;;;;5032333;28;20067;-78
2022/06/26 11:18:43;;;;;;;6.35;2.40;;;22.50;96.80;;;;;;5041343;28;20524;-76
2022/06/26 11:21:08;;;;;;;11.73;3.40;;;22.60;97.00;;;;;;5039218;28;20033;-77
2022/06/26 11:23:38;;;;;;;6.57;3.10;;;22.60;96.50;;;;;;5035629;28;20029;-77
2022/06/26 11:26:09;;;;;;;9.95;3.13;;;22.60;96.80;;;;;;5036166;28;20010;-76
2022/06/26 11:28:41;;;;;;;7.47;2.88;;;22.70;95.90;;;;;;5046479;28;20533;-79
2022/06/26 11:31:20;;;;;;;8.70;3.10;;;22.80;95.40;;;;;;5046948;28;20052;-80
2022/06/26 11:33:46;;;;;;;6.40;2.75;;;22.80;94.70;;;;;;5033410;28;20033;-80
2022/06/26 11:36:13;;;;;;;7.88;2.65;;;22.90;94.90;;;;;;5030658;28;20026;-77
2022/06/26 11:38:46;;;;;;;6.10;2.58;;;23.00;94.70;;;;;;5032173;28;20079;-78
2022/06/26 11:41:11;;;;;;;8.38;2.67;;;23.10;93.40;;;;;;5034759;28;20026;-78
2022/06/26 11:43:44;;;;;;;6.47;3.38;;;23.20;92.00;;;;;;5031680;28;20025;-82
2022/06/26 11:46:10;;;;;;;6.97;2.90;;;23.30;91.70;;;;;;5038701;28;20521;-80
2022/06/26 11:48:36;;;;;;;6.47;2.40;;;23.50;91.60;;;;;;5052954;28;20175;-80
2022/06/26 11:51:02;;;;;;;11.57;2.70;;;23.60;90.30;;;;;;5045600;28;20032;-79
2022/06/26 11:53:30;;;;;;;9.63;2.80;;;23.70;88.40;;;;;;5045534;28;20018;-81
2022/06/26 11:55:58;;;;;;;5.85;3.03;;;23.80;85.40;;;;;;5050292;28;20065;-79
2022/06/26 11:58:26;;;;;;;8.30;2.90;;;23.80;85.40;;;;;;5047241;28;20025;-80
2022/06/26 12:01:12;;;;;;;8.93;3.10;;;23.80;85.90;;;;;;5041840;28;20059;-80
2022/06/26 12:03:47;;;;;;;4.45;3.10;;;23.80;84.80;;;;;;5037717;28;20025;-78
2022/06/26 12:06:25;;;;;;;83.95;20.13;;;23.80;83.00;;;;;;5035826;28;20490;-80
2022/06/26 12:08:51;;;;;;;10.48;4.55;;;23.80;83.90;;;;;;5035442;28;20037;-78
2022/06/26 12:11:17;;;;;;;9.70;6.18;;;23.70;84.30;;;;;;5048710;28;20370;-76
2022/06/26 12:13:43;;;;;;;10.95;5.50;;;23.60;85.80;;;;;;5034752;28;20036;-80
2022/06/26 12:16:11;;;;;;;8.93;6.78;;;23.60;87.50;;;;;;5037417;28;20021;-79
2022/06/26 12:18:41;;;;;;;8.43;6.90;;;23.60;87.80;;;;;;5037645;28;20044;-79
2022/06/26 12:21:23;;;;;;;12.73;8.63;;;23.60;86.70;;;;;;5050420;28;20029;-80
2022/06/26 12:23:51;;;;;;;12.00;9.73;;;23.70;87.20;;;;;;5041207;28;20021;-79
2022/06/26 12:26:19;;;;;;;10.18;7.78;;;23.90;87.30;;;;;;5049504;28;20025;-82
2022/06/26 12:28:48;;;;;;;9.45;6.78;;;24.00;86.20;;;;;;5054362;28;20017;-81
2022/06/26 12:31:15;;;;;;;14.57;9.23;;;24.00;85.00;;;;;;5040720;28;20167;-84
2022/06/26 12:33:41;;;;;;;17.20;10.30;;;24.00;85.70;;;;;;5036624;28;20017;-80
2022/06/26 12:36:07;;;;;;;11.68;9.35;;;23.90;85.20;;;;;;5039144;28;20017;-79
2022/06/26 12:38:34;;;;;;;14.10;9.07;;;23.80;85.00;;;;;;5045462;28;20109;-79
2022/06/26 12:41:05;;;;;;;13.60;9.07;;;23.70;85.60;;;;;;5049680;28;20146;-79
2022/06/26 12:43:31;;;;;;;12.43;8.77;;;23.70;85.50;;;;;;5041382;28;20098;-78
2022/06/26 12:45:57;;;;;;;11.75;8.88;;;23.80;84.80;;;;;;5056057;28;20480;-79
2022/06/26 12:48:22;;;;;;;10.07;7.88;;;23.90;84.10;;;;;;5044871;28;20021;-80
2022/06/26 12:50:48;;;;;;;8.07;7.28;;;24.00;84.10;;;;;;5049892;28;20024;-78
2022/06/26 12:53:14;;;;;;;10.90;8.10;;;24.00;83.90;;;;;;5046579;28;20028;-82
2022/06/26 12:55:39;;;;;;;11.48;7.47;;;24.10;83.60;;;;;;5044993;28;20041;-78
2022/06/26 12:58:05;;;;;;;10.98;6.38;;;24.20;83.80;;;;;;5049058;28;20025;-79